Time;durP1;ratioP1;P1;durP2;ratioP2;P2;SDS_P1;SDS_P2;PMS_P1;PMS_P2;Temp;Humidity;BMP_temperature;BMP_pressure;BME280_temperature;BME280_humidity;BME280_pressure;Samples;Min_cycle;Max_cycle;Signal;HPM_P1;HPM_P2
2022/10/03 00:02:15;;;;;;;;;;;;;;;9.77;100.00;102502.84;5018709;28;19925;-40
2022/10/03 00:04:46;;;;;;;;;;;;;;;9.75;100.00;102507.44;5018503;28;19940;-42
2022/10/03 00:07:30;;;;;;;;;;;;;;;9.72;100.00;102505.84;5004501;28;19917;-39
2022/10/03 00:09:55;;;;;;;;;;;;;;;9.73;100.00;102506.72;5018011;28;20096;-41
2022/10/03 00:12:20;;;;;;;;;;;;;;;9.71;100.00;102497.00;5018213;28;19940;-40
2022/10/03 00:15:04;;;;;;;;;;;;;;;9.69;100.00;102503.41;5018447;28;19978;-41
2022/10/03 00:17:29;;;;;;;;;;;;;;;9.65;100.00;102499.25;5019167;28;20016;-40
2022/10/03 00:20:04;;;;;;;;;;;;;;;9.64;100.00;102500.22;5017107;28;20057;-41
2022/10/03 00:22:47;;;;;;;;;;;;;;;9.63;100.00;102503.88;5018786;28;20338;-40
2022/10/03 00:25:26;;;;;;;;;;;;;;;9.60;100.00;102512.09;5018076;28;20095;-40
2022/10/03 00:28:04;;;;;;;;;;;;;;;9.55;100.00;102512.44;5015606;28;19917;-40
2022/10/03 00:30:41;;;;;;;;;;;;;;;9.47;100.00;102514.81;5018708;28;19975;-41
2022/10/03 00:33:06;;;;;;;;;;;;;;;9.43;100.00;102521.34;5006177;28;20376;-41
2022/10/03 00:35:32;;;;;;;;;;;;;;;9.40;100.00;102524.22;5013552;28;20056;-41
2022/10/03 00:37:57;;;;;;;;;;;;;;;9.39;100.00;102522.53;5018283;28;19921;-41
2022/10/03 00:40:33;;;;;;;;;;;;;;;9.38;100.00;102529.66;5019327;28;20010;-39
2022/10/03 00:43:02;;;;;;;;;;;;;;;9.36;100.00;102528.09;5016241;28;19929;-39
2022/10/03 00:45:48;;;;;;;;;;;;;;;9.31;100.00;102531.94;5017240;28;19921;-40
2022/10/03 00:48:13;;;;;;;;;;;;;;;9.28;100.00;102524.19;5015887;28;19917;-39
2022/10/03 00:50:41;;;;;;;;;;;;;;;9.27;100.00;102526.94;5017956;28;19922;-41
2022/10/03 00:53:14;;;;;;;;;;;;;;;9.26;100.00;102531.41;5017328;28;19947;-40
2022/10/03 00:55:48;;;;;;;;;;;;;;;9.26;100.00;102533.22;5018049;28;19921;-40
2022/10/03 00:58:40;;;;;;;;;;;;;;;9.25;100.00;102535.06;5016391;28;19925;-40
2022/10/03 01:01:23;;;;;;;;;;;;;;;9.22;100.00;102537.94;5017054;28;19929;-39
2022/10/03 01:03:54;;;;;;;;;;;;;;;9.21;100.00;102535.38;5004034;28;19994;-41
2022/10/03 01:06:27;;;;;;;;;;;;;;;9.20;100.00;102536.31;5017244;28;20020;-40
2022/10/03 01:09:05;;;;;;;;;;;;;;;9.16;100.00;102541.03;5011764;28;19933;-41
2022/10/03 01:11:30;;;;;;;;;;;;;;;9.13;100.00;102552.78;5018548;28;20360;-40
2022/10/03 01:14:13;;;;;;;;;;;;;;;9.12;100.00;102552.88;5016459;28;19917;-39
2022/10/03 01:16:55;;;;;;;;;;;;;;;9.11;100.00;102562.72;5018404;28;19923;-40
2022/10/03 01:19:29;;;;;;;;;;;;;;;9.09;100.00;102558.44;5015696;28;19980;-42
2022/10/03 01:21:57;;;;;;;;;;;;;;;9.07;100.00;102563.03;5015982;28;20390;-41
2022/10/03 01:24:22;;;;;;;;;;;;;;;9.04;100.00;102568.56;5017265;28;20011;-40
2022/10/03 01:26:50;;;;;;;;;;;;;;;9.01;100.00;102566.97;5020447;28;20412;-40
2022/10/03 01:32:15;;;;;;;;;;;;;;;8.94;100.00;102565.69;5023500;28;19928;-40
2022/10/03 01:35:00;;;;;;;;;;;;;;;8.87;100.00;102567.94;5023696;28;19917;-40
2022/10/03 01:37:31;;;;;;;;;;;;;;;8.84;100.00;102569.97;5023951;28;20884;-41
2022/10/03 01:40:10;;;;;;;;;;;;;;;8.80;100.00;102566.66;5024063;28;19913;-39
2022/10/03 01:42:59;;;;;;;;;;;;;;;8.76;100.00;102573.19;5023040;28;20375;-40
2022/10/03 01:45:40;;;;;;;;;;;;;;;8.75;100.00;102571.47;5010025;28;19924;-39
2022/10/03 01:48:18;;;;;;;;;;;;;;;8.76;100.00;102570.50;5022321;28;20012;-40
2022/10/03 01:50:48;;;;;;;;;;;;;;;8.75;100.00;102577.63;5024108;28;20364;-41
2022/10/03 01:53:18;;;;;;;;;;;;;;;8.68;100.00;102573.69;5023162;28;19916;-40
2022/10/03 01:56:03;;;;;;;;;;;;;;;8.64;100.00;102571.34;5024815;28;19939;-40
2022/10/03 01:58:44;;;;;;;;;;;;;;;8.61;100.00;102561.75;5023300;28;20287;-40
2022/10/03 02:01:24;;;;;;;;;;;;;;;8.58;100.00;102561.97;5023414;28;19982;-40
2022/10/03 02:03:56;;;;;;;;;;;;;;;8.65;100.00;102565.06;5022870;28;20311;-41
2022/10/03 02:06:31;;;;;;;;;;;;;;;8.65;100.00;102567.72;5024058;28;20008;-40
2022/10/03 02:09:16;;;;;;;;;;;;;;;8.64;100.00;102560.69;5023769;28;20174;-40
2022/10/03 02:11:46;;;;;;;;;;;;;;;8.56;100.00;102572.72;5014242;28;21336;-40
2022/10/03 02:14:33;;;;;;;;;;;;;;;8.54;100.00;102568.47;5022825;28;20316;-41
2022/10/03 02:17:17;;;;;;;;;;;;;;;8.52;100.00;102573.91;5023642;28;19940;-40
2022/10/03 02:19:59;;;;;;;;;;;;;;;8.55;100.00;102584.34;5011532;28;20339;-42
2022/10/03 02:22:28;;;;;;;;;;;;;;;8.57;100.00;102574.44;5020280;28;19983;-40
2022/10/03 02:25:05;;;;;;;;;;;;;;;8.57;100.00;102579.78;5023677;28;19924;-41
2022/10/03 02:27:51;;;;;;;;;;;;;;;8.52;100.00;102579.22;5023173;28;19956;-41
2022/10/03 02:30:36;;;;;;;;;;;;;;;8.44;100.00;102578.91;5012610;28;19923;-39
2022/10/03 02:33:07;;;;;;;;;;;;;;;8.32;100.00;102577.03;5023326;28;19913;-40
2022/10/03 02:36:10;;;;;;;;;;;;;;;8.27;100.00;102577.34;5021470;28;19913;-40
2022/10/03 02:38:51;;;;;;;;;;;;;;;8.29;100.00;102579.91;4980956;28;19918;-42
2022/10/03 02:41:33;;;;;;;;;;;;;;;8.30;100.00;102578.94;4997804;28;20209;-40
2022/10/03 02:44:17;;;;;;;;;;;;;;;8.34;100.00;102580.44;5011206;28;20134;-40
2022/10/03 02:46:51;;;;;;;;;;;;;;;8.35;100.00;102577.69;5020298;28;19970;-40
2022/10/03 02:49:43;;;;;;;;;;;;;;;8.40;100.00;102574.69;5019639;28;19924;-41
2022/10/03 02:52:09;;;;;;;;;;;;;;;8.40;100.00;102572.03;5017365;28;19929;-40
2022/10/03 02:54:53;;;;;;;;;;;;;;;8.40;100.00;102575.56;5019487;28;19967;-39
2022/10/03 02:57:22;;;;;;;;;;;;;;;8.43;100.00;102576.34;5008482;28;19917;-41
2022/10/03 02:59:49;;;;;;;;;;;;;;;8.42;100.00;102567.47;5019574;28;19924;-39
2022/10/03 03:02:33;;;;;;;;;;;;;;;8.43;100.00;102576.34;5021727;28;20256;-39
2022/10/03 03:05:01;;;;;;;;;;;;;;;8.40;100.00;102572.91;5018836;28;19928;-41
2022/10/03 03:07:29;;;;;;;;;;;;;;;8.40;100.00;102567.56;5020456;28;19917;-39
2022/10/03 03:10:13;;;;;;;;;;;;;;;8.39;100.00;102570.34;5020265;28;20995;-39
2022/10/03 03:12:50;;;;;;;;;;;;;;;8.38;100.00;102579.28;5008566;28;19960;-40
2022/10/03 03:15:35;;;;;;;;;;;;;;;8.32;100.00;102577.88;5018510;28;19925;-39
2022/10/03 03:18:10;;;;;;;;;;;;;;;8.25;100.00;102579.25;5019824;28;19917;-39
2022/10/03 03:20:51;;;;;;;;;;;;;;;8.24;100.00;102582.03;5019130;28;20414;-39
2022/10/03 03:23:37;;;;;;;;;;;;;;;8.25;100.00;102583.72;5019526;28;19940;-40
2022/10/03 03:26:11;;;;;;;;;;;;;;;8.26;100.00;102583.63;5004070;28;19917;-40
2022/10/03 03:28:45;;;;;;;;;;;;;;;8.28;100.00;102586.19;5019186;28;19917;-40
2022/10/03 03:31:30;;;;;;;;;;;;;;;8.27;100.00;102587.16;5019442;28;19991;-40
2022/10/03 03:34:14;;;;;;;;;;;;;;;8.25;100.00;102583.72;5017953;28;20129;-39
2022/10/03 03:36:45;;;;;;;;;;;;;;;8.22;100.00;102580.31;5020378;28;19932;-40
2022/10/03 03:39:29;;;;;;;;;;;;;;;8.20;100.00;102582.22;5019485;28;20379;-40
2022/10/03 03:42:00;;;;;;;;;;;;;;;8.17;100.00;102587.75;5013821;28;20643;-40
2022/10/03 03:44:43;;;;;;;;;;;;;;;8.15;100.00;102589.66;5019278;28;20380;-41
2022/10/03 03:47:31;;;;;;;;;;;;;;;8.14;100.00;102587.09;5019581;28;19924;-41
2022/10/03 03:50:10;;;;;;;;;;;;;;;8.11;100.00;102588.19;5018136;28;19917;-41
2022/10/03 03:52:44;;;;;;;;;;;;;;;8.08;100.00;102585.72;5018066;28;20400;-40
2022/10/03 03:55:14;;;;;;;;;;;;;;;8.08;100.00;102590.16;5018900;28;19947;-40
2022/10/03 03:57:45;;;;;;;;;;;;;;;8.06;100.00;102590.25;5018583;28;19932;-41
2022/10/03 04:00:13;;;;;;;;;;;;;;;8.03;100.00;102588.66;5017466;28;19960;-40
2022/10/03 04:02:58;;;;;;;;;;;;;;;8.03;100.00;102587.81;5015804;28;19933;-39
2022/10/03 04:05:23;;;;;;;;;;;;;;;8.05;100.00;102595.72;5011861;28;20407;-39
2022/10/03 04:07:57;;;;;;;;;;;;;;;8.08;100.00;102600.81;5019043;28;19917;-39
2022/10/03 04:10:41;;;;;;;;;;;;;;;8.08;100.00;102603.47;5018915;28;20390;-39
2022/10/03 04:13:12;;;;;;;;;;;;;;;8.06;100.00;102592.91;5017586;28;19913;-39
2022/10/03 04:15:37;;;;;;;;;;;;;;;8.07;100.00;102604.44;5018472;28;20303;-40
2022/10/03 04:21:25;;;;;;;;;;;;;;;7.99;100.00;102597.81;5015401;28;20010;-40
2022/10/03 04:24:07;;;;;;;;;;;;;;;7.97;100.00;102598.88;5018384;28;20492;-39
2022/10/03 04:26:47;;;;;;;;;;;;;;;7.96;100.00;102602.47;5019194;28;20094;-40
2022/10/03 04:29:18;;;;;;;;;;;;;;;7.95;100.00;102611.41;5017054;28;19921;-39
2022/10/03 04:31:43;;;;;;;;;;;;;;;7.92;100.00;102601.81;5018697;28;19909;-39
2022/10/03 04:34:09;;;;;;;;;;;;;;;7.88;100.00;102607.47;5017641;28;19928;-39
2022/10/03 04:36:54;;;;;;;;;;;;;;;7.86;100.00;102610.22;5018905;28;19975;-39
2022/10/03 04:39:25;;;;;;;;;;;;;;;7.85;100.00;102609.34;5016394;28;20043;-39
2022/10/03 04:41:51;;;;;;;;;;;;;;;7.81;100.00;102610.50;5011127;28;20364;-39
2022/10/03 04:44:38;;;;;;;;;;;;;;;7.76;100.00;102612.63;5011248;28;19924;-39
2022/10/03 04:47:07;;;;;;;;;;;;;;;7.72;100.00;102613.78;5015453;28;19917;-40
2022/10/03 04:49:52;;;;;;;;;;;;;;;7.70;100.00;102614.81;5018033;28;19925;-40
2022/10/03 04:52:38;;;;;;;;;;;;;;;7.67;100.00;102613.19;5018224;28;19921;-39
2022/10/03 04:55:06;;;;;;;;;;;;;;;7.66;100.00;102608.84;5016383;28;20012;-39
2022/10/03 04:57:31;;;;;;;;;;;;;;;7.68;100.00;102606.09;5017544;28;19917;-41
2022/10/03 05:00:00;;;;;;;;;;;;;;;7.71;100.00;102612.06;5017300;28;20066;-39
2022/10/03 05:02:44;;;;;;;;;;;;;;;7.71;100.00;102617.38;5017424;28;20386;-39
2022/10/03 05:05:22;;;;;;;;;;;;;;;7.73;100.00;102615.47;5016219;28;19944;-38
2022/10/03 05:08:01;;;;;;;;;;;;;;;7.73;100.00;102615.47;5003115;28;19929;-39
2022/10/03 05:10:35;;;;;;;;;;;;;;;7.72;100.00;102618.22;5002581;28;19917;-38
2022/10/03 05:13:00;;;;;;;;;;;;;;;7.70;100.00;102612.16;4999456;28;19917;-40
2022/10/03 05:15:32;;;;;;;;;;;;;;;7.70;100.00;102615.66;5008542;28;19916;-39
2022/10/03 05:18:10;;;;;;;;;;;;;;;7.70;100.00;102610.34;4998929;28;19926;-39
2022/10/03 05:20:53;;;;;;;;;;;;;;;7.69;100.00;102615.75;5004555;28;19937;-42
2022/10/03 05:23:23;;;;;;;;;;;;;;;7.67;100.00;102610.53;5004328;28;19936;-39
2022/10/03 05:25:56;;;;;;;;;;;;;;;7.65;100.00;102618.63;4999821;28;20129;-39
2022/10/03 05:28:35;;;;;;;;;;;;;;;7.61;100.00;102617.09;4999168;28;19921;-39
2022/10/03 05:31:13;;;;;;;;;;;;;;;7.59;100.00;102619.00;5014738;28;19921;-39
2022/10/03 05:33:38;;;;;;;;;;;;;;;7.58;100.00;102619.94;5001658;28;19917;-41
2022/10/03 05:36:22;;;;;;;;;;;;;;;7.58;100.00;102622.59;4997988;28;19921;-41
2022/10/03 05:38:59;;;;;;;;;;;;;;;7.59;100.00;102626.16;5006543;28;19925;-38
2022/10/03 05:41:28;;;;;;;;;;;;;;;7.57;100.00;102638.66;5006990;28;20206;-41
2022/10/03 05:44:08;;;;;;;;;;;;;;;7.60;100.00;102646.44;5014649;28;19928;-39
2022/10/03 05:46:39;;;;;;;;;;;;;;;7.61;100.00;102642.84;5012142;28;20237;-38
2022/10/03 05:49:22;;;;;;;;;;;;;;;7.60;100.00;102642.00;5011910;28;20276;-39
2022/10/03 05:51:54;;;;;;;;;;;;;;;7.59;100.00;102650.06;5011363;28;19933;-39
2022/10/03 05:54:39;;;;;;;;;;;;;;;7.57;100.00;102646.63;5015033;28;19917;-39
2022/10/03 05:57:13;;;;;;;;;;;;;;;7.55;100.00;102654.75;5014990;28;19929;-39
2022/10/03 05:59:42;;;;;;;;;;;;;;;7.56;100.00;102650.25;5012425;28;19925;-39
2022/10/03 06:02:07;;;;;;;;;;;;;;;7.58;100.00;102654.53;4999863;28;20117;-39
2022/10/03 06:04:41;;;;;;;;;;;;;;;7.60;100.00;102651.75;5015279;28;20475;-40
2022/10/03 06:07:06;;;;;;;;;;;;;;;7.60;100.00;102652.63;5000555;28;20337;-39
2022/10/03 06:09:38;;;;;;;;;;;;;;;7.61;100.00;102659.66;4998610;28;20011;-39
2022/10/03 06:12:06;;;;;;;;;;;;;;;7.63;100.00;102646.25;4997794;28;19992;-39
2022/10/03 06:14:35;;;;;;;;;;;;;;;7.64;100.00;102655.97;5017372;28;19944;-39
2022/10/03 06:17:19;;;;;;;;;;;;;;;7.65;100.00;102661.19;5017552;28;19991;-39
2022/10/03 06:19:48;;;;;;;;;;;;;;;7.67;100.00;102663.72;5015435;28;20000;-39
2022/10/03 06:22:26;;;;;;;;;;;;;;;7.64;100.00;102664.78;5015101;28;19978;-39
2022/10/03 06:25:10;;;;;;;;;;;;;;;7.65;100.00;102657.66;5019221;28;19922;-41
2022/10/03 06:27:53;;;;;;;;;;;;;;;7.69;100.00;102664.50;5004809;28;19925;-40
2022/10/03 06:30:24;;;;;;;;;;;;;;;7.70;100.00;102670.66;5014833;28;19943;-39
2022/10/03 06:33:09;;;;;;;;;;;;;;;7.66;100.00;102670.00;5016664;28;19921;-41
2022/10/03 06:35:37;;;;;;;;;;;;;;;7.66;100.00;102667.34;5016233;28;19909;-41
2022/10/03 06:38:08;;;;;;;;;;;;;;;7.68;100.00;102669.91;5012247;28;20187;-40
2022/10/03 06:40:56;;;;;;;;;;;;;;;7.72;100.00;102672.28;5012816;28;20380;-39
2022/10/03 06:43:34;;;;;;;;;;;;;;;7.77;100.00;102675.50;5007536;28;20193;-39
2022/10/03 06:46:14;;;;;;;;;;;;;;;7.82;100.00;102678.72;5016758;28;19914;-39
2022/10/03 06:49:00;;;;;;;;;;;;;;;7.85;100.00;102670.53;5018311;28;20379;-41
2022/10/03 06:51:44;;;;;;;;;;;;;;;7.92;100.00;102668.31;5014376;28;20384;-39
2022/10/03 06:54:28;;;;;;;;;;;;;;;8.00;100.00;102670.50;5017850;28;19995;-39
2022/10/03 06:57:03;;;;;;;;;;;;;;;8.09;100.00;102669.91;5015373;28;19913;-40
2022/10/03 06:59:31;;;;;;;;;;;;;;;8.18;100.00;102673.75;5015399;28;20018;-40
2022/10/03 07:02:15;;;;;;;;;;;;;;;8.29;100.00;102679.25;5000574;28;19963;-41
2022/10/03 07:04:40;;;;;;;;;;;;;;;8.40;100.00;102681.19;5001435;28;19966;-39
2022/10/03 07:07:34;;;;;;;;;;;;;;;8.49;100.00;102675.31;4998911;28;19925;-39
2022/10/03 07:10:02;;;;;;;;;;;;;;;8.62;100.00;102685.97;5000117;28;20333;-39
2022/10/03 07:12:50;;;;;;;;;;;;;;;8.76;100.00;102687.72;5006917;28;20038;-39
2022/10/03 07:15:15;;;;;;;;;;;;;;;8.93;100.00;102690.09;5012484;28;20004;-41
2022/10/03 07:17:41;;;;;;;;;;;;;;;9.07;100.00;102689.13;5017568;28;20356;-38
2022/10/03 07:20:09;;;;;;;;;;;;;;;9.17;100.00;102684.03;5016969;28;20164;-39
2022/10/03 07:22:40;;;;;;;;;;;;;;;9.24;100.00;102690.63;5002880;28;20179;-40
2022/10/03 07:25:24;;;;;;;;;;;;;;;9.28;100.00;102685.94;5014475;28;20229;-39
2022/10/03 07:28:00;;;;;;;;;;;;;;;9.37;100.00;102689.75;5010900;28;19929;-39
2022/10/03 07:30:30;;;;;;;;;;;;;;;9.49;100.00;102684.44;5012446;28;19977;-41
2022/10/03 07:33:13;;;;;;;;;;;;;;;9.59;100.00;102689.09;5008670;28;20002;-39
2022/10/03 07:39:00;;;;;;;;;;;;;;;9.89;100.00;102702.06;5013500;28;19993;-39
2022/10/03 07:41:30;;;;;;;;;;;;;;;10.06;100.00;102696.38;4988516;28;21739;-38
2022/10/03 07:44:08;;;;;;;;;;;;;;;10.23;100.00;102704.94;5003442;28;19917;-38
2022/10/03 07:46:42;;;;;;;;;;;;;;;10.36;100.00;102708.44;5015059;28;19917;-38
2022/10/03 07:49:08;;;;;;;;;;;;;;;10.48;100.00;102717.38;5002823;28;20391;-40
2022/10/03 07:51:36;;;;;;;;;;;;;;;10.58;100.00;102712.19;4999518;28;19914;-39
2022/10/03 07:54:20;;;;;;;;;;;;;;;10.68;100.00;102715.03;5009037;28;19920;-40
2022/10/03 07:57:04;;;;;;;;;;;;;;;10.86;100.00;102715.44;5006212;28;19917;-39
2022/10/03 07:59:45;;;;;;;;;;;;;;;11.09;100.00;102727.91;4998493;28;20275;-39
2022/10/03 08:02:36;;;;;;;;;;;;;;;11.27;100.00;102728.31;4998153;28;19922;-38
2022/10/03 08:05:05;;;;;;;;;;;;;;;11.43;100.00;102727.97;4998725;28;20094;-39
2022/10/03 08:07:52;;;;;;;;;;;;;;;11.55;100.00;102736.84;4999687;28;19918;-42
2022/10/03 08:10:51;;;;;;;;;;;;;;;11.63;100.00;102728.22;4999223;28;20565;-41
2022/10/03 08:13:16;;;;;;;;;;;;;;;11.75;100.00;102728.09;5004197;28;19947;-39
2022/10/03 08:15:52;;;;;;;;;;;;;;;11.83;100.00;102723.94;5014990;28;20364;-40
2022/10/03 08:18:23;;;;;;;;;;;;;;;11.89;100.00;102716.25;5013648;28;20368;-47
2022/10/03 08:20:51;;;;;;;;;;;;;;;11.98;100.00;102721.88;5015841;28;19940;-41
2022/10/03 08:23:19;;;;;;;;;;;;;;;12.02;100.00;102712.66;5016146;28;20447;-41
2022/10/03 08:25:53;;;;;;;;;;;;;;;12.06;100.00;102725.63;5016362;28;20382;-41
2022/10/03 08:28:28;;;;;;;;;;;;;;;12.11;100.00;102723.44;5015836;28;19960;-42
2022/10/03 08:31:17;;;;;;;;;;;;;;;12.25;100.00;102719.66;5011532;28;20076;-40
2022/10/03 08:34:12;;;;;;;;;;;;;;;12.47;100.00;102724.09;4997814;28;20384;-40
2022/10/03 08:36:46;;;;;;;;;;;;;;;12.67;100.00;102724.25;5001432;28;19970;-43
2022/10/03 08:39:19;;;;;;;;;;;;;;;12.84;100.00;102730.88;5010193;28;20609;-42
2022/10/03 08:42:02;;;;;;;;;;;;;;;13.01;100.00;102724.91;5003673;28;20264;-42
2022/10/03 08:44:33;;;;;;;;;;;;;;;13.23;100.00;102731.97;5017459;28;19917;-40
2022/10/03 08:47:20;;;;;;;;;;;;;;;13.43;100.00;102727.59;5017811;28;19909;-40
2022/10/03 08:50:04;;;;;;;;;;;;;;;13.67;100.00;102733.63;5016890;28;20427;-42
2022/10/03 08:52:37;;;;;;;;;;;;;;;13.91;100.00;102730.59;5017575;28;20031;-38
2022/10/03 08:55:02;;;;;;;;;;;;;;;13.97;100.00;102735.44;5017871;28;19913;-41
2022/10/03 08:57:42;;;;;;;;;;;;;;;14.03;100.00;102731.34;5017030;28;20273;-42
2022/10/03 09:00:13;;;;;;;;;;;;;;;14.06;100.00;102734.59;5015810;28;19943;-41
2022/10/03 09:02:47;;;;;;;;;;;;;;;14.05;100.00;102732.06;5016798;28;20377;-44
2022/10/03 09:05:22;;;;;;;;;;;;;;;14.06;100.00;102745.34;5012101;28;19929;-41
2022/10/03 09:07:57;;;;;;;;;;;;;;;14.22;100.00;102730.53;4999894;28;20130;-40
2022/10/03 09:10:31;;;;;;;;;;;;;;;14.37;100.00;102737.19;4997879;28;19963;-40
2022/10/03 09:13:15;;;;;;;;;;;;;;;14.54;100.00;102735.66;5000462;28;19920;-41
2022/10/03 09:15:52;;;;;;;;;;;;;;;14.79;100.00;102734.28;4998154;28;19914;-40
2022/10/03 09:18:36;;;;;;;;;;;;;;;14.87;100.00;102733.59;4997313;28;19918;-41
2022/10/03 09:21:20;;;;;;;;;;;;;;;14.91;100.00;102737.66;5016556;28;20600;-39
2022/10/03 09:23:51;;;;;;;;;;;;;;;14.95;100.00;102736.38;5002142;28;20048;-41
2022/10/03 09:26:34;;;;;;;;;;;;;;;14.98;100.00;102724.50;4998575;28;20034;-43
2022/10/03 09:29:08;;;;;;;;;;;;;;;15.05;100.00;102723.78;5002002;28;20265;-41
2022/10/03 09:31:49;;;;;;;;;;;;;;;15.19;100.00;102719.78;5008577;28;20000;-40
2022/10/03 09:34:32;;;;;;;;;;;;;;;15.35;100.00;102724.56;4997085;28;20021;-41
2022/10/03 09:37:15;;;;;;;;;;;;;;;15.45;100.00;102724.53;4998132;28;19925;-41
2022/10/03 09:39:53;;;;;;;;;;;;;;;15.59;100.00;102724.03;5016222;28;20330;-42
2022/10/03 09:42:37;;;;;;;;;;;;;;;15.65;100.00;102726.13;5007175;28;19922;-43
2022/10/03 09:45:02;;;;;;;;;;;;;;;15.80;100.00;102718.44;5015767;28;19913;-41
2022/10/03 09:47:39;;;;;;;;;;;;;;;15.88;100.00;102712.28;5007098;28;20076;-40
2022/10/03 09:50:18;;;;;;;;;;;;;;;15.96;100.00;102720.47;5002181;28;19910;-42
2022/10/03 09:53:01;;;;;;;;;;;;;;;15.97;100.00;102713.22;5017825;28;19968;-41
2022/10/03 09:55:39;;;;;;;;;;;;;;;16.02;100.00;102719.03;5006197;28;19929;-41
2022/10/03 09:58:11;;;;;;;;;;;;;;;16.10;100.00;102712.88;5001108;28;20014;-42
2022/10/03 10:00:51;;;;;;;;;;;;;;;16.21;100.00;102718.06;5005062;28;19995;-39
2022/10/03 10:03:32;;;;;;;;;;;;;;;16.21;100.00;102718.91;5009020;28;20029;-41
2022/10/03 10:06:33;;;;;;;;;;;;;;;16.21;100.00;102713.50;5005465;28;19929;-40
2022/10/03 10:09:04;;;;;;;;;;;;;;;16.27;100.00;102711.22;4990491;28;19991;-42
2022/10/03 10:11:35;;;;;;;;;;;;;;;16.30;100.00;102710.91;5001264;28;19920;-40
2022/10/03 10:14:28;;;;;;;;;;;;;;;16.29;100.00;102710.03;5000965;28;19913;-40
2022/10/03 10:17:02;;;;;;;;;;;;;;;16.22;100.00;102711.66;5001343;28;19917;-40
2022/10/03 10:19:46;;;;;;;;;;;;;;;16.31;100.00;102716.16;5003973;28;19940;-43
2022/10/03 10:22:20;;;;;;;;;;;;;;;16.44;100.00;102712.22;5001430;28;20287;-47
2022/10/03 10:24:48;;;;;;;;;;;;;;;16.59;100.00;102714.22;5015871;28;19932;-42
2022/10/03 10:27:32;;;;;;;;;;;;;;;16.77;100.00;102707.97;5010090;28;20095;-46
2022/10/03 10:30:03;;;;;;;;;;;;;;;16.92;100.00;102698.31;5001365;28;19936;-43
2022/10/03 10:32:34;;;;;;;;;;;;;;;17.00;100.00;102696.69;5000070;28;19917;-45
2022/10/03 10:35:27;;;;;;;;;;;;;;;17.08;100.00;102708.38;5015421;28;19944;-44
2022/10/03 10:38:11;;;;;;;;;;;;;;;17.24;99.36;102704.09;5017086;28;19952;-44
2022/10/03 10:40:39;;;;;;;;;;;;;;;17.37;99.75;102704.50;5020095;28;19913;-44
2022/10/03 10:43:17;;;;;;;;;;;;;;;17.50;95.56;102699.50;5001802;28;19918;-43
2022/10/03 10:46:08;;;;;;;;;;;;;;;17.71;92.31;102704.47;5000853;28;19920;-43
2022/10/03 10:48:46;;;;;;;;;;;;;;;17.87;92.05;102708.28;5000734;28;20395;-45
2022/10/03 10:51:23;;;;;;;;;;;;;;;18.08;86.97;102705.16;4999902;28;20462;-47
2022/10/03 10:54:07;;;;;;;;;;;;;;;18.23;88.21;102703.50;5001408;28;19917;-43
2022/10/03 10:56:51;;;;;;;;;;;;;;;18.22;89.53;102706.34;5016999;28;20012;-44
2022/10/03 10:59:25;;;;;;;;;;;;;;;18.08;90.45;102706.00;5015934;28;19979;-42
2022/10/03 11:02:13;;;;;;;;;;;;;;;18.01;90.64;102706.84;5002481;28;19924;-46
2022/10/03 11:04:48;;;;;;;;;;;;;;;18.08;89.82;102706.00;4992725;28;19928;-44
2022/10/03 11:07:19;;;;;;;;;;;;;;;18.08;89.29;102707.84;5031640;28;20325;-43
2022/10/03 11:09:50;;;;;;;;;;;;;;;18.19;88.74;102704.81;5007622;28;19917;-44
2022/10/03 11:12:36;;;;;;;;;;;;;;;18.40;85.00;102701.66;5009242;28;19917;-41
2022/10/03 11:15:02;;;;;;;;;;;;;;;18.52;81.90;102704.03;5004852;28;20020;-44
2022/10/03 11:17:33;;;;;;;;;;;;;;;18.69;85.33;102694.06;4999745;28;20004;-48
2022/10/03 11:20:10;;;;;;;;;;;;;;;19.01;82.00;102695.91;5013972;28;19948;-46
2022/10/03 11:22:35;;;;;;;;;;;;;;;19.14;77.94;102693.50;5017641;28;19918;-43
2022/10/03 11:25:03;;;;;;;;;;;;;;;19.09;77.83;102701.28;5020395;28;19920;-44
2022/10/03 11:27:34;;;;;;;;;;;;;;;19.06;79.80;102693.53;5018994;28;19917;-48
2022/10/03 11:30:00;;;;;;;;;;;;;;;19.34;81.90;102690.41;5020531;28;20015;-44
2022/10/03 11:32:44;;;;;;;;;;;;;;;19.73;73.67;102692.28;5019208;28;19913;-45
2022/10/03 11:35:40;;;;;;;;;;;;;;;19.94;77.92;102688.97;5020589;28;20007;-46
2022/10/03 11:38:21;;;;;;;;;;;;;;;20.07;74.66;102680.28;5007950;28;20031;-43
2022/10/03 11:40:51;;;;;;;;;;;;;;;20.27;67.87;102696.94;5020418;28;19921;-45
2022/10/03 11:43:23;;;;;;;;;;;;;;;20.30;61.72;102689.25;5017727;28;19928;-45
2022/10/03 11:45:50;;;;;;;;;;;;;;;20.14;65.25;102694.78;5019546;28;20371;-45
2022/10/03 11:48:32;;;;;;;;;;;;;;;19.78;65.09;102684.50;5019080;28;19917;-43
2022/10/03 11:51:02;;;;;;;;;;;;;;;19.32;64.77;102687.88;5018505;28;19917;-44
2022/10/03 11:53:46;;;;;;;;;;;;;;;19.09;69.84;102689.63;5015035;28;19932;-48
2022/10/03 11:56:31;;;;;;;;;;;;;;;18.89;70.78;102690.00;5015139;28;19927;-45
2022/10/03 11:58:56;;;;;;;;;;;;;;;18.71;73.53;102687.44;5016478;28;20380;-45
2022/10/03 12:01:24;;;;;;;;;;;;;;;18.67;74.14;102682.53;5017180;28;20082;-46
2022/10/03 12:03:54;;;;;;;;;;;;;;;18.60;73.81;102688.66;5016489;28;19913;-44
2022/10/03 12:09:28;;;;;;;;;;;;;;;18.66;71.28;102688.97;5013917;28;19923;-47
2022/10/03 12:12:09;;;;;;;;;;;;;;;18.73;73.85;102687.28;5009555;28;19913;-44
2022/10/03 12:14:45;;;;;;;;;;;;;;;18.78;69.72;102688.44;5016134;28;19928;-43
2022/10/03 12:17:14;;;;;;;;;;;;;;;18.88;75.00;102682.06;5014990;28;19971;-46
2022/10/03 12:19:45;;;;;;;;;;;;;;;19.16;71.39;102683.34;5018403;28;19924;-44
2022/10/03 12:22:16;;;;;;;;;;;;;;;19.58;75.47;102681.34;5016986;28;19936;-44
2022/10/03 12:24:43;;;;;;;;;;;;;;;19.84;69.94;102682.94;5015659;28;20357;-44
2022/10/03 12:27:09;;;;;;;;;;;;;;;20.10;73.92;102678.03;5012795;28;19921;-44
2022/10/03 12:29:37;;;;;;;;;;;;;;;20.21;74.03;102667.78;5009622;28;19972;-46
2022/10/03 12:32:05;;;;;;;;;;;;;;;20.09;72.64;102670.06;5006041;28;19948;-46
2022/10/03 12:34:30;;;;;;;;;;;;;;;19.96;70.88;102672.53;5008866;28;20377;-46
2022/10/03 12:37:14;;;;;;;;;;;;;;;19.88;71.23;102663.44;5012797;28;19921;-46
2022/10/03 12:40:03;;;;;;;;;;;;;;;20.08;71.73;102671.97;5013932;28;19971;-48
2022/10/03 12:42:37;;;;;;;;;;;;;;;20.49;74.12;102665.38;5014586;28;20242;-44
2022/10/03 12:45:08;;;;;;;;;;;;;;;21.18;66.73;102658.94;5016346;28;20016;-47
2022/10/03 12:47:47;;;;;;;;;;;;;;;21.76;60.93;102656.38;5015826;28;19979;-45
2022/10/03 12:50:16;;;;;;;;;;;;;;;21.92;62.79;102658.84;5008378;28;19917;-46
2022/10/03 12:53:08;;;;;;;;;;;;;;;22.06;63.62;102661.72;4996062;28;19925;-48
2022/10/03 12:55:37;;;;;;;;;;;;;;;21.98;56.36;102652.66;4996274;28;20317;-44
2022/10/03 12:58:05;;;;;;;;;;;;;;;21.51;67.31;102661.31;5007399;28;19912;-47
2022/10/03 13:00:49;;;;;;;;;;;;;;;21.19;63.30;102653.31;5007287;28;20241;-44
2022/10/03 13:03:26;;;;;;;;;;;;;;;21.31;62.86;102647.41;5004174;28;20295;-45
2022/10/03 13:05:57;;;;;;;;;;;;;;;21.59;53.96;102651.16;4995748;28;19925;-45
2022/10/03 13:08:44;;;;;;;;;;;;;;;21.80;61.20;102636.75;4995250;28;20017;-43
2022/10/03 13:11:15;;;;;;;;;;;;;;;22.31;55.31;102645.88;5005743;28;19992;-48
2022/10/03 13:14:05;;;;;;;;;;;;;;;22.06;58.94;102653.56;4997395;28;19909;-46
2022/10/03 13:16:30;;;;;;;;;;;;;;;21.54;59.91;102648.16;5000345;28;19983;-44
2022/10/03 13:19:03;;;;;;;;;;;;;;;21.27;60.81;102646.13;4996673;28;20034;-44
2022/10/03 13:21:46;;;;;;;;;;;;;;;21.10;63.24;102640.88;5013104;28;20172;-44
2022/10/03 13:24:12;;;;;;;;;;;;;;;21.02;64.70;102640.97;5012104;28;19998;-43
2022/10/03 13:26:57;;;;;;;;;;;;;;;20.88;65.92;102626.34;5002086;28;20376;-47
2022/10/03 13:29:41;;;;;;;;;;;;;;;21.02;60.56;102630.94;4992461;28;19999;-45
2022/10/03 13:32:25;;;;;;;;;;;;;;;21.49;55.47;102636.19;4994280;28;20223;-44
2022/10/03 13:34:50;;;;;;;;;;;;;;;21.45;55.30;102635.66;5003473;28;19971;-43